METAR Data
IDs: Format: Raw Decoded Include TAF

Data at: 1814 UTC 03 Jul 2020

METAR for:KMRT (Marysville/Union Cnt, OH, US)
Text:KMRT 031755Z AUTO 08005KT 10SM CLR 31/14 A3004 RMK AO2 T03100141 10313 20220
Temperature: 31.0°C ( 88°F)
Dewpoint: 14.1°C ( 57°F) [RH = 36%]
Pressure (altimeter):30.04 inches Hg (1017.4 mb)
Winds:from the E (80 degrees) at 6 MPH (5 knots; 2.6 m/s)
Visibility:10 or more sm (16+ km)
Ceiling:at least 12,000 feet AGL
Clouds:sky clear below 12,000 feet AGL
QC Flag:automated observation with no human augmentation